createdAt,value
2019-04-19T00:04:48.375Z,16.96
2019-04-19T00:07:33.783Z,16.76
2019-04-19T00:10:35.293Z,16.46
2019-04-19T00:13:07.742Z,16.15
2019-04-19T00:15:56.090Z,16.59
2019-04-19T00:19:10.422Z,16.55
2019-04-19T00:22:05.216Z,16.37
2019-04-19T00:24:27.082Z,16.33
2019-04-19T00:27:15.998Z,15.81
2019-04-19T00:30:40.112Z,15.66
2019-04-19T00:33:26.130Z,15.64
2019-04-19T00:36:10.465Z,15.70
2019-04-19T00:42:44.004Z,14.15
2019-04-19T00:45:58.338Z,14.96
2019-04-19T00:51:45.036Z,14.90
2019-04-19T00:54:27.010Z,14.98
2019-04-19T00:57:19.143Z,14.72
2019-04-19T00:59:58.207Z,14.28
2019-04-19T01:02:51.791Z,13.08
2019-04-19T01:05:35.716Z,14.73
2019-04-19T01:08:24.270Z,14.41
2019-04-19T01:11:23.502Z,14.28
2019-04-19T01:14:08.736Z,14.09
2019-04-19T01:17:03.139Z,14.22
2019-04-19T01:19:39.022Z,12.33
2019-04-19T01:22:30.117Z,13.56
2019-04-19T01:25:21.283Z,13.44
2019-04-19T01:28:13.915Z,13.40
2019-04-19T01:30:59.041Z,13.21
2019-04-19T01:33:49.199Z,13.23
2019-04-19T01:36:43.864Z,12.20
2019-04-19T01:39:50.953Z,13.05
2019-04-19T01:45:53.460Z,13.02
2019-04-19T01:48:44.258Z,13.15
2019-04-19T01:51:51.353Z,13.29
2019-04-19T01:54:47.991Z,13.28
2019-04-19T01:57:19.451Z,12.94
2019-04-19T02:03:07.566Z,13.25
2019-04-19T02:06:01.511Z,13.10
2019-04-19T02:08:50.854Z,13.15
2019-04-19T02:12:13.188Z,13.16
2019-04-19T02:14:48.499Z,11.55
2019-04-19T02:17:34.766Z,13.23
2019-04-19T02:20:22.197Z,13.23
2019-04-19T02:23:14.652Z,11.61
2019-04-19T02:26:08.939Z,12.42
2019-04-19T02:28:56.570Z,12.49
2019-04-19T02:32:17.340Z,12.72
2019-04-19T02:37:52.933Z,12.73
2019-04-19T02:40:52.419Z,12.95
2019-04-19T02:43:39.881Z,12.92
2019-04-19T02:46:38.393Z,13.06
2019-04-19T02:49:21.765Z,13.11
2019-04-19T02:52:09.925Z,13.10
2019-04-19T03:01:41.795Z,12.84
2019-04-19T03:06:56.126Z,12.65
2019-04-19T03:09:39.242Z,11.64
2019-04-19T03:12:43.881Z,12.45
2019-04-19T03:15:29.805Z,12.21
2019-04-19T03:18:23.653Z,12.20
2019-04-19T03:21:02.214Z,12.26
2019-04-19T03:23:55.338Z,12.10
2019-04-19T03:26:45.715Z,12.04
2019-04-19T03:29:29.408Z,11.77
2019-04-19T03:32:56.233Z,11.90
2019-04-19T03:35:14.263Z,10.55
2019-04-19T03:38:14.179Z,12.29
2019-04-19T03:44:17.154Z,11.99
2019-04-19T03:47:10.203Z,11.80
2019-04-19T03:50:01.812Z,11.92
2019-04-19T03:52:50.107Z,11.91
2019-04-19T03:55:37.483Z,11.90
2019-04-19T03:58:16.521Z,11.87
2019-04-19T04:01:02.519Z,11.97
2019-04-19T04:03:56.611Z,10.55
2019-04-19T04:06:45.623Z,10.80
2019-04-19T04:09:57.147Z,11.72
2019-04-19T04:16:04.887Z,9.87
2019-04-19T04:18:40.662Z,11.33
2019-04-19T04:21:37.194Z,11.54
2019-04-19T04:27:35.106Z,11.56
2019-04-19T04:33:51.823Z,11.40
2019-04-19T04:36:45.115Z,9.74
2019-04-19T04:39:17.733Z,11.32
2019-04-19T04:42:16.441Z,10.68
2019-04-19T04:48:01.400Z,10.97
2019-04-19T04:51:03.023Z,10.91
2019-04-19T04:53:47.212Z,10.97
2019-04-19T04:57:05.294Z,9.65
2019-04-19T04:59:50.395Z,10.78
2019-04-19T05:02:51.869Z,10.93
2019-04-19T05:05:43.163Z,11.12
2019-04-19T05:08:36.289Z,11.20
2019-04-19T05:11:15.979Z,10.81
2019-04-19T05:14:12.634Z,10.29
2019-04-19T05:17:12.317Z,10.88
2019-04-19T05:19:50.324Z,11.51
2019-04-19T05:22:36.897Z,11.65
2019-04-19T05:28:55.576Z,11.80
2019-04-19T05:31:40.540Z,12.38
2019-04-19T05:34:41.708Z,12.50
2019-04-19T05:40:55.023Z,12.50
2019-04-19T05:44:19.693Z,13.03
2019-04-19T05:46:58.814Z,13.23
2019-04-19T05:49:52.445Z,13.39
2019-04-19T05:52:42.361Z,13.63
2019-04-19T05:55:16.478Z,13.88
2019-04-19T05:58:14.319Z,14.11
2019-04-19T06:01:07.954Z,13.90
2019-04-19T06:04:04.396Z,14.35
2019-04-19T06:06:56.492Z,14.60
2019-04-19T06:09:26.438Z,14.87
2019-04-19T06:12:17.793Z,15.08
2019-04-19T06:15:22.833Z,15.18
2019-04-19T06:18:26.116Z,15.37
2019-04-19T06:24:14.868Z,15.55
2019-04-19T06:30:13.367Z,15.72
2019-04-19T06:33:03.077Z,15.35
2019-04-19T06:35:41.587Z,15.83
2019-04-19T06:38:20.614Z,16.03
2019-04-19T06:44:12.916Z,16.64
2019-04-19T06:49:50.947Z,17.02
2019-04-19T06:52:40.023Z,15.69
2019-04-19T06:55:34.471Z,15.79
2019-04-19T06:58:24.828Z,17.15
2019-04-19T07:01:21.722Z,15.98
2019-04-19T07:04:02.065Z,17.55
2019-04-19T07:07:09.481Z,16.83
2019-04-19T07:18:51.129Z,18.31
2019-04-19T07:21:47.157Z,18.58
2019-04-19T07:24:59.225Z,17.45
2019-04-19T07:27:23.680Z,18.71
2019-04-19T07:30:03.434Z,18.52
2019-04-19T07:39:22.824Z,19.45
2019-04-19T07:42:15.642Z,19.81
2019-04-19T07:45:05.888Z,18.64
2019-04-19T07:51:09.149Z,20.20
2019-04-19T07:53:54.667Z,20.41
2019-04-19T07:56:54.458Z,20.64
2019-04-19T07:59:54.904Z,20.75
2019-04-19T08:02:50.353Z,21.08
2019-04-19T08:05:43.951Z,21.22
2019-04-19T08:11:25.935Z,21.43
2019-04-19T08:14:09.765Z,21.73
2019-04-19T08:17:29.075Z,21.94
2019-04-19T08:28:07.246Z,21.29
2019-04-19T08:33:36.076Z,22.27
2019-04-19T08:36:33.041Z,22.43
2019-04-19T08:39:33.839Z,22.54
2019-04-19T08:42:27.390Z,22.76
2019-04-19T08:45:04.238Z,21.96
2019-04-19T08:48:15.611Z,22.91
2019-04-19T08:54:29.753Z,22.91
2019-04-19T08:57:04.708Z,23.12
2019-04-19T09:00:12.497Z,23.07
2019-04-19T09:02:55.636Z,23.00
2019-04-19T09:05:47.921Z,23.31
2019-04-19T09:08:38.465Z,23.55
2019-04-19T09:11:25.211Z,22.85
2019-04-19T09:14:12.335Z,23.21
2019-04-19T09:17:10.123Z,23.66
2019-04-19T09:20:08.096Z,23.59
2019-04-19T09:22:56.670Z,23.23
2019-04-19T09:26:05.683Z,23.69
2019-04-19T09:34:43.970Z,24.00
2019-04-19T09:37:42.790Z,24.04
2019-04-19T09:40:28.443Z,24.11
2019-04-19T09:43:21.419Z,24.04
2019-04-19T09:45:57.883Z,24.40
2019-04-19T09:49:06.717Z,24.39
2019-04-19T09:51:52.867Z,24.71
2019-04-19T09:54:51.719Z,24.60
2019-04-19T09:58:00.677Z,23.91
2019-04-19T10:03:49.358Z,25.30
2019-04-19T10:06:35.114Z,25.40
2019-04-19T10:09:26.933Z,25.43
2019-04-19T10:12:09.038Z,25.21
2019-04-19T10:14:57.904Z,25.39
2019-04-19T10:17:46.878Z,25.49
2019-04-19T10:20:56.625Z,25.79
2019-04-19T10:23:45.689Z,25.92
2019-04-19T10:26:54.926Z,26.01
2019-04-19T10:29:45.683Z,26.22
2019-04-19T10:35:43.608Z,26.37
2019-04-19T10:38:33.797Z,26.29
2019-04-19T10:41:22.923Z,26.58
2019-04-19T10:44:16.576Z,26.74
2019-04-19T10:47:02.946Z,26.69
2019-04-19T10:49:58.252Z,26.33
2019-04-19T10:58:36.827Z,26.85
2019-04-19T11:01:19.364Z,26.79
2019-04-19T11:04:08.852Z,27.02
2019-04-19T11:10:09.559Z,27.15
2019-04-19T11:12:58.797Z,27.16
2019-04-19T11:15:48.571Z,26.50
2019-04-19T11:18:39.225Z,27.61
2019-04-19T11:21:29.658Z,27.26
2019-04-19T11:24:20.023Z,27.28
2019-04-19T11:27:11.077Z,26.33
2019-04-19T11:36:05.758Z,27.20
2019-04-19T11:38:56.836Z,26.56
2019-04-19T11:41:47.483Z,26.71
2019-04-19T11:47:31.535Z,27.29
2019-04-19T11:50:20.407Z,28.11
2019-04-19T11:59:40.260Z,27.53
2019-04-19T12:02:42.174Z,28.28
2019-04-19T12:05:34.037Z,27.20
2019-04-19T12:08:22.541Z,28.56
2019-04-19T12:11:12.617Z,28.32
2019-04-19T12:14:02.170Z,29.15
2019-04-19T12:19:51.771Z,28.01
2019-04-19T12:25:29.964Z,28.04
2019-04-19T12:28:19.640Z,28.95
2019-04-19T12:31:09.494Z,29.21
2019-04-19T12:33:59.752Z,28.26
2019-04-19T12:36:49.014Z,27.87
2019-04-19T12:39:39.063Z,29.18
2019-04-19T12:42:46.861Z,29.51
2019-04-19T12:48:43.775Z,29.68
2019-04-19T12:51:34.372Z,29.32
2019-04-19T12:54:25.880Z,30.40
2019-04-19T12:57:16.081Z,30.61
2019-04-19T13:03:39.734Z,31.44
2019-04-19T13:06:48.209Z,31.99
2019-04-19T13:09:37.257Z,31.13
2019-04-19T13:12:28.682Z,31.59
2019-04-19T13:15:17.975Z,32.45
2019-04-19T13:18:06.755Z,32.19
2019-04-19T13:20:55.701Z,33.29
2019-04-19T13:23:44.404Z,33.93
2019-04-19T13:26:33.522Z,35.00
2019-04-19T13:29:23.689Z,34.24
2019-04-19T13:32:13.534Z,34.78
2019-04-19T13:35:03.500Z,34.49
2019-04-19T13:38:12.809Z,35.15
2019-04-19T13:41:01.408Z,34.87
2019-04-19T13:44:09.558Z,35.46
2019-04-19T13:46:58.506Z,36.04
2019-04-19T13:49:51.767Z,36.55
2019-04-19T13:52:39.602Z,37.04
2019-04-19T13:55:28.761Z,38.25
2019-04-19T13:58:19.936Z,39.23
2019-04-19T14:01:03.022Z,39.45
2019-04-19T14:03:53.157Z,39.95
2019-04-19T14:06:42.454Z,39.98
2019-04-19T14:13:01.002Z,40.60
2019-04-19T14:15:51.037Z,40.76
2019-04-19T14:18:22.566Z,40.27
2019-04-19T14:21:12.838Z,39.95
2019-04-19T14:24:03.785Z,39.56
2019-04-19T14:26:55.978Z,40.02
2019-04-19T14:29:45.466Z,39.73
2019-04-19T14:32:34.983Z,40.99
2019-04-19T14:35:23.973Z,40.74
2019-04-19T14:38:15.767Z,39.70
2019-04-19T14:41:05.303Z,40.96
2019-04-19T14:43:55.368Z,40.60
2019-04-19T14:46:38.669Z,40.91
2019-04-19T14:49:27.524Z,41.17
2019-04-19T14:55:25.305Z,39.63
2019-04-19T14:58:14.710Z,39.53
2019-04-19T15:04:37.525Z,38.15
2019-04-19T15:13:30.660Z,38.25
2019-04-19T15:16:21.025Z,39.23
2019-04-19T15:19:11.073Z,38.89
2019-04-19T15:22:01.887Z,38.76
2019-04-19T15:28:22.692Z,40.04
2019-04-19T15:31:12.627Z,39.95
2019-04-19T15:34:02.773Z,39.20
2019-04-19T15:36:51.982Z,39.42
2019-04-19T15:39:42.032Z,39.73
2019-04-19T15:42:32.482Z,39.21
2019-04-19T15:45:32.474Z,39.45
2019-04-19T15:48:26.249Z,39.72
2019-04-19T15:51:15.307Z,38.68
2019-04-19T15:53:56.392Z,39.56
2019-04-19T15:56:45.632Z,40.07
2019-04-19T15:59:34.844Z,39.38
2019-04-19T16:02:44.245Z,39.61
2019-04-19T16:05:52.130Z,39.73
2019-04-19T16:09:01.158Z,39.97
2019-04-19T16:12:09.470Z,39.54
2019-04-19T16:14:58.251Z,39.68
2019-04-19T16:20:54.776Z,40.74
2019-04-19T16:23:44.888Z,40.36
2019-04-19T16:26:35.039Z,40.22
2019-04-19T16:29:35.461Z,40.25
2019-04-19T16:32:15.071Z,40.25
2019-04-19T16:38:32.599Z,40.63
2019-04-19T16:41:22.917Z,39.74
2019-04-19T16:44:11.722Z,39.25
2019-04-19T16:47:01.321Z,38.69
2019-04-19T16:49:44.787Z,38.79
2019-04-19T16:52:33.598Z,39.14
2019-04-19T16:55:41.533Z,38.53
2019-04-19T17:01:38.922Z,38.47
2019-04-19T17:07:57.385Z,38.30
2019-04-19T17:10:47.516Z,37.67
2019-04-19T17:16:52.709Z,35.79
2019-04-19T17:20:00.759Z,37.06
2019-04-19T17:22:50.646Z,36.30
2019-04-19T17:25:41.097Z,36.70
2019-04-19T17:28:30.803Z,36.38
2019-04-19T17:31:20.283Z,36.00
2019-04-19T17:34:10.151Z,36.06
2019-04-19T17:37:00.233Z,35.41
2019-04-19T17:39:50.635Z,34.91
2019-04-19T17:42:40.359Z,34.30
2019-04-19T17:45:31.539Z,33.63
2019-04-19T17:48:21.006Z,32.54
2019-04-19T17:51:03.929Z,32.15
2019-04-19T17:53:53.785Z,31.73
2019-04-19T17:56:43.327Z,31.08
2019-04-19T17:59:32.279Z,30.16
2019-04-19T18:02:23.332Z,28.30
2019-04-19T18:05:13.976Z,28.96
2019-04-19T18:08:04.265Z,27.70
2019-04-19T18:10:57.062Z,27.28
2019-04-19T18:13:44.818Z,26.57
2019-04-19T18:16:34.596Z,25.08
2019-04-19T18:19:31.468Z,26.08
2019-04-19T18:22:31.163Z,24.40
2019-04-19T18:25:32.463Z,25.54
2019-04-19T18:28:19.376Z,24.29
2019-04-19T18:31:09.524Z,25.07
2019-04-19T18:34:03.953Z,24.18
2019-04-19T18:36:51.892Z,24.05
2019-04-19T18:39:38.641Z,24.42
2019-04-19T18:42:28.095Z,23.23
2019-04-19T18:45:24.747Z,24.11
2019-04-19T18:48:09.383Z,23.58
2019-04-19T18:50:52.479Z,23.80
2019-04-19T18:54:12.018Z,23.59
2019-04-19T18:56:58.610Z,23.44
2019-04-19T18:59:44.533Z,23.34
2019-04-19T19:02:32.317Z,23.16
2019-04-19T19:05:23.664Z,22.99
2019-04-19T19:08:17.577Z,22.79
2019-04-19T19:11:09.758Z,22.69
2019-04-19T19:13:55.159Z,22.59
2019-04-19T19:16:45.256Z,22.39
2019-04-19T19:19:37.099Z,22.24
2019-04-19T19:22:32.281Z,22.20
2019-04-19T19:25:47.154Z,22.03
2019-04-19T19:28:28.430Z,21.87
2019-04-19T19:31:18.794Z,21.64
2019-04-19T19:34:09.873Z,21.34
2019-04-19T19:37:01.009Z,20.04
2019-04-19T19:39:56.681Z,21.44
2019-04-19T19:45:48.966Z,21.11
2019-04-19T19:51:43.343Z,20.86
2019-04-19T19:54:44.909Z,19.25
2019-04-19T19:57:30.121Z,20.24
2019-04-19T20:03:34.531Z,20.49
2019-04-19T20:06:17.325Z,19.62
2019-04-19T20:09:29.663Z,20.16
2019-04-19T20:12:22.611Z,20.34
2019-04-19T20:15:33.465Z,20.18
2019-04-19T20:18:25.543Z,20.14
2019-04-19T20:21:13.516Z,20.10
2019-04-19T20:24:14.613Z,19.70
2019-04-19T20:27:04.364Z,19.65
2019-04-19T20:29:43.788Z,18.64
2019-04-19T20:32:32.516Z,19.53
2019-04-19T20:35:18.012Z,18.95
2019-04-19T20:38:10.416Z,19.00
2019-04-19T20:41:01.489Z,18.90
2019-04-19T20:43:59.638Z,18.92
2019-04-19T20:46:37.998Z,19.03
2019-04-19T20:49:34.972Z,17.54
2019-04-19T20:52:45.433Z,18.98
2019-04-19T20:55:45.442Z,18.82
2019-04-19T20:58:29.990Z,18.91
2019-04-19T21:01:10.444Z,18.20
2019-04-19T21:04:04.586Z,18.86
2019-04-19T21:06:51.756Z,17.59
2019-04-19T21:09:43.240Z,17.80
2019-04-19T21:12:34.563Z,17.93
2019-04-19T21:15:29.408Z,18.41
2019-04-19T21:18:19.033Z,17.31
2019-04-19T21:21:08.986Z,17.65
2019-04-19T21:24:01.428Z,17.96
2019-04-19T21:26:45.692Z,17.72
2019-04-19T21:29:36.824Z,17.84
2019-04-19T21:32:29.287Z,16.54
2019-04-19T21:35:12.445Z,17.71
2019-04-19T21:38:05.793Z,17.00
2019-04-19T21:40:50.282Z,17.81
2019-04-19T21:43:42.081Z,17.80
2019-04-19T21:46:33.644Z,17.89
2019-04-19T21:49:22.923Z,17.75
2019-04-19T21:52:16.239Z,16.69
2019-04-19T21:55:18.634Z,16.37
2019-04-19T21:57:53.696Z,16.66
2019-04-19T22:01:10.061Z,17.56
2019-04-19T22:03:57.387Z,17.70
2019-04-19T22:06:47.680Z,17.62
2019-04-19T22:09:34.840Z,17.57
2019-04-19T22:12:24.190Z,17.62
2019-04-19T22:15:15.704Z,17.80
2019-04-19T22:18:06.215Z,17.79
2019-04-19T22:23:51.691Z,17.64
2019-04-19T22:26:47.064Z,17.61
2019-04-19T22:29:42.150Z,17.61
2019-04-19T22:32:22.203Z,17.67
2019-04-19T22:35:16.770Z,15.53
2019-04-19T22:37:54.752Z,15.63
2019-04-19T22:40:45.026Z,17.27
2019-04-19T22:43:34.410Z,16.90
2019-04-19T22:46:23.592Z,16.96
2019-04-19T22:49:16.195Z,17.05
2019-04-19T22:52:04.785Z,15.59
2019-04-19T22:55:01.996Z,15.31
2019-04-19T22:57:51.645Z,16.94
2019-04-19T23:00:40.084Z,16.45
2019-04-19T23:03:46.443Z,16.26
2019-04-19T23:06:36.533Z,16.49
2019-04-19T23:09:26.581Z,16.59
2019-04-19T23:12:16.806Z,16.50
2019-04-19T23:15:29.875Z,16.63
2019-04-19T23:18:21.464Z,16.73
2019-04-19T23:21:12.866Z,16.47
2019-04-19T23:24:03.899Z,16.40
2019-04-19T23:27:07.145Z,16.40
2019-04-19T23:29:40.019Z,16.36
2019-04-19T23:32:34.766Z,16.22
2019-04-19T23:35:12.567Z,15.93
2019-04-19T23:38:01.361Z,15.89
2019-04-19T23:40:50.988Z,15.80
2019-04-19T23:43:43.883Z,14.43
2019-04-19T23:46:35.440Z,15.62
2019-04-19T23:49:22.693Z,15.55
2019-04-19T23:52:12.921Z,14.53
2019-04-19T23:55:02.649Z,15.34
2019-04-19T23:57:55.717Z,13.74
